createdAt,value
2018-08-23T00:00:42.022Z,14.28
2018-08-23T00:01:42.040Z,14.32
2018-08-23T00:02:42.060Z,14.37
2018-08-23T00:03:42.102Z,14.37
2018-08-23T00:04:42.100Z,14.35
2018-08-23T00:05:42.117Z,14.32
2018-08-23T00:06:42.135Z,14.37
2018-08-23T00:07:42.154Z,14.36
2018-08-23T00:08:42.172Z,14.35
2018-08-23T00:09:42.208Z,14.37
2018-08-23T00:10:42.210Z,14.35
2018-08-23T00:11:42.232Z,14.39
2018-08-23T00:12:42.249Z,14.35
2018-08-23T00:13:42.289Z,14.50
2018-08-23T00:14:42.288Z,14.39
2018-08-23T00:15:42.305Z,14.45
2018-08-23T00:16:42.387Z,14.42
2018-08-23T00:17:42.344Z,14.42
2018-08-23T00:18:42.361Z,14.28
2018-08-23T00:19:42.381Z,14.27
2018-08-23T00:20:42.398Z,14.29
2018-08-23T00:21:42.418Z,14.27
2018-08-23T00:22:42.436Z,14.28
2018-08-23T00:23:42.456Z,14.27
2018-08-23T00:24:42.475Z,14.21
2018-08-23T00:25:42.493Z,14.32
2018-08-23T00:26:42.512Z,14.27
2018-08-23T00:27:42.533Z,14.29
2018-08-23T00:28:42.551Z,14.22
2018-08-23T00:29:42.569Z,14.24
2018-08-23T00:30:42.588Z,14.24
2018-08-23T00:31:42.607Z,14.22
2018-08-23T00:32:42.628Z,14.27
2018-08-23T00:33:42.645Z,14.22
2018-08-23T00:34:42.662Z,14.32
2018-08-23T00:35:42.683Z,14.28
2018-08-23T00:36:42.701Z,14.24
2018-08-23T00:37:42.726Z,14.29
2018-08-23T00:38:42.737Z,14.32
2018-08-23T00:39:42.757Z,14.29
2018-08-23T00:40:42.774Z,14.27
2018-08-23T00:41:42.795Z,14.25
2018-08-23T00:42:42.813Z,14.28
2018-08-23T00:43:42.833Z,14.17
2018-08-23T00:44:42.852Z,14.21
2018-08-23T00:45:42.877Z,14.21
2018-08-23T00:46:42.891Z,14.22
2018-08-23T00:47:42.907Z,14.17
2018-08-23T00:48:42.926Z,14.20
2018-08-23T00:49:42.945Z,14.17
2018-08-23T00:50:42.964Z,14.21
2018-08-23T00:51:42.985Z,14.25
2018-08-23T00:52:43.002Z,14.17
2018-08-23T00:53:43.024Z,14.21
2018-08-23T00:54:43.041Z,14.20
2018-08-23T00:55:43.057Z,14.12
2018-08-23T00:56:43.076Z,14.15
2018-08-23T00:57:43.094Z,14.17
2018-08-23T00:58:43.118Z,14.17
2018-08-23T00:59:43.136Z,14.21
2018-08-23T01:00:43.151Z,14.21
2018-08-23T01:01:43.170Z,14.17
2018-08-23T01:02:43.189Z,14.17
2018-08-23T01:03:43.209Z,14.22
2018-08-23T01:04:43.272Z,14.15
2018-08-23T01:05:43.245Z,14.22
2018-08-23T01:06:43.264Z,14.18
2018-08-23T01:07:43.284Z,14.24
2018-08-23T01:08:43.302Z,14.14
2018-08-23T01:09:43.321Z,14.18
2018-08-23T01:10:43.347Z,14.21
2018-08-23T01:11:43.357Z,14.20
2018-08-23T01:12:43.379Z,14.25
2018-08-23T01:13:43.396Z,14.21
2018-08-23T01:14:43.416Z,14.20
2018-08-23T01:15:43.433Z,14.18
2018-08-23T01:16:43.452Z,14.20
2018-08-23T01:17:43.471Z,14.25
2018-08-23T01:18:43.490Z,14.15
2018-08-23T01:19:43.511Z,14.17
2018-08-23T01:20:43.528Z,14.18
2018-08-23T01:21:43.549Z,14.22
2018-08-23T01:22:43.564Z,14.21
2018-08-23T01:23:43.587Z,14.24
2018-08-23T01:24:43.603Z,14.21
2018-08-23T01:25:43.621Z,14.21
2018-08-23T01:26:43.639Z,14.12
2018-08-23T01:27:43.658Z,14.20
2018-08-23T01:28:43.678Z,14.17
2018-08-23T01:29:43.696Z,14.12
2018-08-23T01:30:43.718Z,14.17
2018-08-23T01:31:43.744Z,14.07
2018-08-23T01:32:43.751Z,14.09
2018-08-23T01:33:43.770Z,14.03
2018-08-23T01:34:43.790Z,14.07
2018-08-23T01:35:43.809Z,14.10
2018-08-23T01:36:43.826Z,14.15
2018-08-23T01:37:43.850Z,14.06
2018-08-23T01:38:43.865Z,14.12
2018-08-23T01:39:43.884Z,14.04
2018-08-23T01:40:43.902Z,14.03
2018-08-23T01:41:43.920Z,14.03
2018-08-23T01:42:43.940Z,14.03
2018-08-23T01:43:43.962Z,13.97
2018-08-23T01:44:43.977Z,13.97
2018-08-23T01:45:43.996Z,13.88
2018-08-23T01:46:44.016Z,13.87
2018-08-23T01:47:44.034Z,13.96
2018-08-23T01:48:44.055Z,14.00
2018-08-23T01:49:44.070Z,13.96
2018-08-23T01:50:44.090Z,13.92
2018-08-23T01:51:44.110Z,14.00
2018-08-23T01:52:44.128Z,14.00
2018-08-23T01:53:44.146Z,13.99
2018-08-23T01:54:44.164Z,13.97
2018-08-23T01:55:44.183Z,14.02
2018-08-23T01:56:44.200Z,14.02
2018-08-23T01:57:44.219Z,13.97
2018-08-23T01:58:44.240Z,14.02
2018-08-23T01:59:44.260Z,14.03
2018-08-23T02:00:44.276Z,14.03
2018-08-23T02:01:44.299Z,14.00
2018-08-23T02:02:44.314Z,14.00
2018-08-23T02:03:44.332Z,13.97
2018-08-23T02:04:44.350Z,13.99
2018-08-23T02:05:44.369Z,13.97
2018-08-23T02:06:44.397Z,13.97
2018-08-23T02:07:44.409Z,13.97
2018-08-23T02:08:44.425Z,13.97
2018-08-23T02:09:44.445Z,13.95
2018-08-23T02:10:44.463Z,13.97
2018-08-23T02:11:44.481Z,14.06
2018-08-23T02:12:44.500Z,14.03
2018-08-23T02:13:44.521Z,14.04
2018-08-23T02:14:44.538Z,13.95
2018-08-23T02:15:44.556Z,13.99
2018-08-23T02:16:44.575Z,14.03
2018-08-23T02:17:44.593Z,14.00
2018-08-23T02:18:44.611Z,13.99
2018-08-23T02:19:44.630Z,13.96
2018-08-23T02:20:44.648Z,13.97
2018-08-23T02:21:44.667Z,13.88
2018-08-23T02:22:44.689Z,13.92
2018-08-23T02:23:44.707Z,13.89
2018-08-23T02:24:44.725Z,13.92
2018-08-23T02:25:44.741Z,13.85
2018-08-23T02:26:44.761Z,13.89
2018-08-23T02:27:44.782Z,13.84
2018-08-23T02:28:44.799Z,13.88
2018-08-23T02:29:44.816Z,13.85
2018-08-23T02:30:44.836Z,13.81
2018-08-23T02:31:44.854Z,13.84
2018-08-23T02:32:44.871Z,13.87
2018-08-23T02:33:44.892Z,13.85
2018-08-23T02:34:44.909Z,13.85
2018-08-23T02:35:44.928Z,13.87
2018-08-23T02:36:44.947Z,13.91
2018-08-23T02:37:44.964Z,13.88
2018-08-23T02:38:44.985Z,13.85
2018-08-23T02:39:45.004Z,13.84
2018-08-23T02:40:45.021Z,13.88
2018-08-23T02:41:45.039Z,13.85
2018-08-23T02:42:45.060Z,13.85
2018-08-23T02:43:45.078Z,13.92
2018-08-23T02:44:45.193Z,13.82
2018-08-23T02:45:45.117Z,13.82
2018-08-23T02:46:45.134Z,13.92
2018-08-23T02:47:45.154Z,13.84
2018-08-23T02:48:45.169Z,13.88
2018-08-23T02:49:45.187Z,13.87
2018-08-23T02:50:45.207Z,13.82
2018-08-23T02:51:45.224Z,13.84
2018-08-23T02:52:45.243Z,13.88
2018-08-23T02:53:45.261Z,13.85
2018-08-23T02:54:45.281Z,13.84
2018-08-23T02:55:45.299Z,13.87
2018-08-23T02:56:45.320Z,13.89
2018-08-23T02:57:45.335Z,13.77
2018-08-23T02:58:45.354Z,13.81
2018-08-23T02:59:45.374Z,13.81
2018-08-23T03:00:45.390Z,13.81
2018-08-23T03:01:45.410Z,13.89
2018-08-23T03:02:45.428Z,13.73
2018-08-23T03:03:45.448Z,13.85
2018-08-23T03:04:45.469Z,13.85
2018-08-23T03:05:45.487Z,13.85
2018-08-23T03:06:45.527Z,13.89
2018-08-23T03:07:45.523Z,13.81
2018-08-23T03:08:45.538Z,13.84
2018-08-23T03:09:45.557Z,13.71
2018-08-23T03:10:45.579Z,13.77
2018-08-23T03:11:45.595Z,13.73
2018-08-23T03:12:45.617Z,13.82
2018-08-23T03:13:45.632Z,13.75
2018-08-23T03:14:45.650Z,13.78
2018-08-23T03:15:45.672Z,13.69
2018-08-23T03:16:45.694Z,13.69
2018-08-23T03:17:45.708Z,13.73
2018-08-23T03:18:45.723Z,13.66
2018-08-23T03:19:45.744Z,13.69
2018-08-23T03:20:45.760Z,13.69
2018-08-23T03:21:45.780Z,13.63
2018-08-23T03:22:45.797Z,13.69
2018-08-23T03:23:45.817Z,13.67
2018-08-23T03:24:45.838Z,13.69
2018-08-23T03:25:45.853Z,13.69
2018-08-23T03:26:45.872Z,13.66
2018-08-23T03:27:45.898Z,13.63
2018-08-23T03:28:45.907Z,13.73
2018-08-23T03:29:45.928Z,13.71
2018-08-23T03:30:45.947Z,13.69
2018-08-23T03:31:45.964Z,13.62
2018-08-23T03:32:45.982Z,13.62
2018-08-23T03:33:46.001Z,13.64
2018-08-23T03:34:46.019Z,13.63
2018-08-23T03:35:46.037Z,13.64
2018-08-23T03:36:46.054Z,13.59
2018-08-23T03:37:46.074Z,13.57
2018-08-23T03:38:46.094Z,13.51
2018-08-23T03:39:46.112Z,13.45
2018-08-23T03:40:46.128Z,13.48
2018-08-23T03:41:46.147Z,13.46
2018-08-23T03:42:46.166Z,13.45
2018-08-23T03:43:46.189Z,13.46
2018-08-23T03:44:46.202Z,13.51
2018-08-23T03:45:46.226Z,13.46
2018-08-23T03:46:46.241Z,13.51
2018-08-23T03:47:46.259Z,13.46
2018-08-23T03:48:46.277Z,13.44
2018-08-23T03:49:46.294Z,13.46
2018-08-23T03:50:46.314Z,13.51
2018-08-23T03:51:46.333Z,13.42
2018-08-23T03:52:46.351Z,13.44
2018-08-23T03:53:46.366Z,13.41
2018-08-23T03:54:46.385Z,13.49
2018-08-23T03:55:46.405Z,13.45
2018-08-23T03:56:46.431Z,13.52
2018-08-23T03:57:46.445Z,13.54
2018-08-23T03:58:46.460Z,13.52
2018-08-23T03:59:46.476Z,13.54
2018-08-23T04:00:46.493Z,13.46
2018-08-23T04:01:46.512Z,13.49
2018-08-23T04:02:46.532Z,13.46
2018-08-23T04:03:46.552Z,13.55
2018-08-23T04:04:46.567Z,13.42
2018-08-23T04:05:46.585Z,13.52
2018-08-23T04:06:46.604Z,13.46
2018-08-23T04:07:46.624Z,13.52
2018-08-23T04:08:46.639Z,13.51
2018-08-23T04:09:46.659Z,13.52
2018-08-23T04:10:46.679Z,13.45
2018-08-23T04:11:46.695Z,13.52
2018-08-23T04:12:46.712Z,13.52
2018-08-23T04:13:46.731Z,13.48
2018-08-23T04:14:46.753Z,13.48
2018-08-23T04:15:46.768Z,13.49
2018-08-23T04:16:46.785Z,13.42
2018-08-23T04:17:46.807Z,13.48
2018-08-23T04:18:46.826Z,13.42
2018-08-23T04:19:46.842Z,13.51
2018-08-23T04:20:46.857Z,13.48
2018-08-23T04:21:46.879Z,13.51
2018-08-23T04:22:46.937Z,13.48
2018-08-23T04:23:46.913Z,13.48
2018-08-23T04:24:46.932Z,13.46
2018-08-23T04:25:46.950Z,13.46
2018-08-23T04:26:46.969Z,13.44
2018-08-23T04:27:46.985Z,13.45
2018-08-23T04:28:47.003Z,13.52
2018-08-23T04:29:47.021Z,13.51
2018-08-23T04:30:47.040Z,13.52
2018-08-23T04:31:47.056Z,13.42
2018-08-23T04:32:47.076Z,13.48
2018-08-23T04:33:47.107Z,13.49
2018-08-23T04:34:47.112Z,13.49
2018-08-23T04:35:47.134Z,13.45
2018-08-23T04:36:47.148Z,13.49
2018-08-23T04:37:47.172Z,13.48
2018-08-23T04:38:47.187Z,13.49
2018-08-23T04:39:47.205Z,13.46
2018-08-23T04:40:47.221Z,13.48
2018-08-23T04:41:47.240Z,13.51
2018-08-23T04:42:47.257Z,13.48
2018-08-23T04:43:47.277Z,13.52
2018-08-23T04:44:47.295Z,13.49
2018-08-23T04:45:47.310Z,13.54
2018-08-23T04:46:47.329Z,13.42
2018-08-23T04:47:47.348Z,13.55
2018-08-23T04:48:47.371Z,13.46
2018-08-23T04:49:47.384Z,13.45
2018-08-23T04:50:47.402Z,13.48
2018-08-23T04:51:47.463Z,13.46
2018-08-23T04:52:47.437Z,13.42
2018-08-23T04:53:47.460Z,13.52
2018-08-23T04:54:47.477Z,13.49
2018-08-23T04:55:47.491Z,13.51
2018-08-23T04:56:47.515Z,13.48
2018-08-23T04:57:47.532Z,13.49
2018-08-23T04:58:47.553Z,13.51
2018-08-23T04:59:47.567Z,13.46
2018-08-23T05:00:47.586Z,13.46
2018-08-23T05:01:47.601Z,13.57
2018-08-23T05:02:47.619Z,13.46
2018-08-23T05:03:47.638Z,13.45
2018-08-23T05:04:47.655Z,13.46
2018-08-23T05:05:47.676Z,13.51
2018-08-23T05:06:47.696Z,13.46
2018-08-23T05:07:47.711Z,13.46
2018-08-23T05:08:47.728Z,13.42
2018-08-23T05:09:47.746Z,13.41
2018-08-23T05:10:47.767Z,13.44
2018-08-23T05:11:47.784Z,13.49
2018-08-23T05:12:47.806Z,13.51
2018-08-23T05:13:47.820Z,13.48
2018-08-23T05:14:47.838Z,13.46
2018-08-23T05:15:47.855Z,13.49
2018-08-23T05:16:47.873Z,13.48
2018-08-23T05:17:47.896Z,13.52
2018-08-23T05:18:47.943Z,13.51
2018-08-23T05:19:47.928Z,13.51
2018-08-23T05:20:47.945Z,13.49
2018-08-23T05:21:47.965Z,13.48
2018-08-23T05:22:47.984Z,13.51
2018-08-23T05:23:47.999Z,13.55
2018-08-23T05:24:48.017Z,13.59
2018-08-23T05:25:48.036Z,13.60
2018-08-23T05:26:48.054Z,13.59
2018-08-23T05:27:48.073Z,13.62
2018-08-23T05:28:48.089Z,13.59
2018-08-23T05:29:48.143Z,13.60
2018-08-23T05:30:48.137Z,13.57
2018-08-23T05:31:48.145Z,13.62
2018-08-23T05:32:48.160Z,13.66
2018-08-23T05:33:48.186Z,13.62
2018-08-23T05:34:48.197Z,13.70
2018-08-23T05:35:48.218Z,13.69
2018-08-23T05:36:48.233Z,13.63
2018-08-23T05:37:48.254Z,13.69
2018-08-23T05:38:48.273Z,13.63
2018-08-23T05:39:48.286Z,13.60
2018-08-23T05:40:48.305Z,13.75
2018-08-23T05:41:48.325Z,13.67
2018-08-23T05:42:48.343Z,13.70
2018-08-23T05:43:48.359Z,13.73
2018-08-23T05:44:48.378Z,13.70
2018-08-23T05:45:48.398Z,13.75
2018-08-23T05:46:48.413Z,13.70
2018-08-23T05:47:48.503Z,13.75
2018-08-23T05:48:48.449Z,13.78
2018-08-23T05:49:48.468Z,13.77
2018-08-23T05:50:48.492Z,13.81
2018-08-23T05:51:48.507Z,13.85
2018-08-23T05:52:48.524Z,13.70
2018-08-23T05:53:48.546Z,13.79
2018-08-23T05:54:48.562Z,13.79
2018-08-23T05:55:48.585Z,13.73
2018-08-23T05:56:48.597Z,13.79
2018-08-23T05:57:48.616Z,13.82
2018-08-23T05:58:48.633Z,13.85
2018-08-23T05:59:48.653Z,13.88
2018-08-23T06:00:48.670Z,13.85
2018-08-23T06:01:48.686Z,13.75
2018-08-23T06:02:48.760Z,13.91
2018-08-23T06:03:48.723Z,13.81
2018-08-23T06:04:48.761Z,13.85
2018-08-23T06:05:48.861Z,13.89
2018-08-23T06:06:48.779Z,13.89
2018-08-23T06:07:48.797Z,13.97
2018-08-23T06:08:48.817Z,13.95
2018-08-23T06:09:48.838Z,14.04
2018-08-23T06:10:48.852Z,14.10
2018-08-23T06:11:48.871Z,14.04
2018-08-23T06:12:48.889Z,14.18
2018-08-23T06:13:48.907Z,14.12
2018-08-23T06:14:48.926Z,14.22
2018-08-23T06:15:48.947Z,14.20
2018-08-23T06:16:48.963Z,14.29
2018-08-23T06:17:48.982Z,14.25
2018-08-23T06:18:49.000Z,14.27
2018-08-23T06:19:49.019Z,14.29
2018-08-23T06:20:49.037Z,14.43
2018-08-23T06:21:49.056Z,14.46
2018-08-23T06:22:49.175Z,14.43
2018-08-23T06:23:49.095Z,14.51
2018-08-23T06:24:49.111Z,14.51
2018-08-23T06:25:49.137Z,14.55
2018-08-23T06:26:49.148Z,14.64
2018-08-23T06:27:49.167Z,14.61
2018-08-23T06:28:49.186Z,14.65
2018-08-23T06:29:49.204Z,14.69
2018-08-23T06:30:49.230Z,14.64
2018-08-23T06:31:49.243Z,14.75
2018-08-23T06:32:49.320Z,14.75
2018-08-23T06:33:49.404Z,14.88
2018-08-23T06:34:49.300Z,14.81
2018-08-23T06:35:49.319Z,14.88
2018-08-23T06:36:49.334Z,14.92
2018-08-23T06:37:49.356Z,14.98
2018-08-23T06:38:49.408Z,14.94
2018-08-23T06:39:49.393Z,14.91
2018-08-23T06:40:49.409Z,14.94
2018-08-23T06:41:49.428Z,15.01
2018-08-23T06:42:49.448Z,15.01
2018-08-23T06:43:49.474Z,14.95
2018-08-23T06:44:49.489Z,14.99
2018-08-23T06:45:49.508Z,14.86
2018-08-23T06:46:49.523Z,14.80
2018-08-23T06:47:49.643Z,14.83
2018-08-23T06:48:49.631Z,14.94
2018-08-23T06:49:49.578Z,14.95
2018-08-23T06:50:49.602Z,14.95
2018-08-23T06:51:49.618Z,14.98
2018-08-23T06:52:49.639Z,14.95
2018-08-23T06:53:49.654Z,14.99
2018-08-23T06:54:49.674Z,15.07
2018-08-23T06:55:49.693Z,15.02
2018-08-23T06:56:49.712Z,15.13
2018-08-23T06:57:49.729Z,15.16
2018-08-23T06:58:49.807Z,15.14
2018-08-23T06:59:49.769Z,15.14
2018-08-23T07:00:49.789Z,15.29
2018-08-23T07:01:49.804Z,15.16
2018-08-23T07:02:49.825Z,15.25
2018-08-23T07:03:49.844Z,15.16
2018-08-23T07:04:49.860Z,15.41
2018-08-23T07:05:49.880Z,15.23
2018-08-23T07:06:49.969Z,15.31
2018-08-23T07:07:49.921Z,15.31
2018-08-23T07:08:49.935Z,15.31
2018-08-23T07:09:49.954Z,15.34
2018-08-23T07:10:49.974Z,15.31
2018-08-23T07:11:49.999Z,15.36
2018-08-23T07:12:50.013Z,15.38
2018-08-23T07:13:50.031Z,15.28
2018-08-23T07:14:50.051Z,15.34
2018-08-23T07:15:50.072Z,15.21
2018-08-23T07:16:50.088Z,15.19
2018-08-23T07:17:50.182Z,15.21
2018-08-23T07:18:50.128Z,15.29
2018-08-23T07:19:50.157Z,15.34
2018-08-23T07:20:50.165Z,15.47
2018-08-23T07:21:50.183Z,15.44
2018-08-23T07:22:50.204Z,15.47
2018-08-23T07:23:50.221Z,15.56
2018-08-23T07:24:50.239Z,15.54
2018-08-23T07:25:50.258Z,15.72
2018-08-23T07:26:50.278Z,15.83
2018-08-23T07:27:50.298Z,15.86
2018-08-23T07:28:50.313Z,15.92
2018-08-23T07:29:50.415Z,15.83
2018-08-23T07:30:50.353Z,15.92
2018-08-23T07:31:50.371Z,15.92
2018-08-23T07:32:50.390Z,16.00
2018-08-23T07:33:50.410Z,15.94
2018-08-23T07:34:50.433Z,15.86
2018-08-23T07:35:50.447Z,15.83
2018-08-23T07:36:50.466Z,15.76
2018-08-23T07:37:50.486Z,15.84
2018-08-23T07:38:50.504Z,15.87
2018-08-23T07:39:50.525Z,15.92
2018-08-23T07:40:50.543Z,15.86
2018-08-23T07:41:50.571Z,15.76
2018-08-23T07:42:50.584Z,15.94
2018-08-23T07:43:50.605Z,16.02
2018-08-23T07:44:50.619Z,16.08
2018-08-23T07:45:50.639Z,16.21
2018-08-23T07:46:50.656Z,16.15
2018-08-23T07:47:50.676Z,16.27
2018-08-23T07:48:50.714Z,16.23
2018-08-23T07:49:50.714Z,16.14
2018-08-23T07:50:50.733Z,16.27
2018-08-23T07:51:50.754Z,16.35
2018-08-23T07:52:50.908Z,16.48
2018-08-23T07:53:50.790Z,16.60
2018-08-23T07:54:50.812Z,16.73
2018-08-23T07:55:50.834Z,16.75
2018-08-23T07:56:50.848Z,16.76
2018-08-23T07:57:50.868Z,16.85
2018-08-23T07:58:50.889Z,16.85
2018-08-23T07:59:50.910Z,17.00
2018-08-23T08:00:50.926Z,17.03
2018-08-23T08:01:50.945Z,16.98
2018-08-23T08:02:50.967Z,17.03
2018-08-23T08:03:50.986Z,17.15
2018-08-23T08:04:51.004Z,17.01
2018-08-23T08:05:51.031Z,16.83
2018-08-23T08:06:51.045Z,16.85
2018-08-23T08:07:51.067Z,16.91
2018-08-23T08:08:51.085Z,16.88
2018-08-23T08:09:51.104Z,17.06
2018-08-23T08:10:51.124Z,16.98
2018-08-23T08:11:51.142Z,17.07
2018-08-23T08:12:51.163Z,17.19
2018-08-23T08:13:51.180Z,17.01
2018-08-23T08:14:51.213Z,17.01
2018-08-23T08:15:51.218Z,17.12
2018-08-23T08:16:51.241Z,17.01
2018-08-23T08:17:51.261Z,17.08
2018-08-23T08:18:51.279Z,17.18
2018-08-23T08:19:51.301Z,17.18
2018-08-23T08:20:51.355Z,17.16
2018-08-23T08:21:51.338Z,17.33
2018-08-23T08:22:51.382Z,17.52
2018-08-23T08:23:51.378Z,17.55
2018-08-23T08:24:51.395Z,17.49
2018-08-23T08:25:51.421Z,17.46
2018-08-23T08:26:51.438Z,17.31
2018-08-23T08:27:51.461Z,17.33
2018-08-23T08:28:51.478Z,17.33
2018-08-23T08:29:51.497Z,17.33
2018-08-23T08:30:51.517Z,17.44
2018-08-23T08:31:51.538Z,17.38
2018-08-23T08:32:51.556Z,17.56
2018-08-23T08:33:51.577Z,17.56
2018-08-23T08:34:51.598Z,17.54
2018-08-23T08:35:51.616Z,17.58
2018-08-23T08:36:51.636Z,17.64
2018-08-23T08:37:51.658Z,17.58
2018-08-23T08:38:51.676Z,17.43
2018-08-23T08:39:51.699Z,17.31
2018-08-23T08:40:51.716Z,17.64
2018-08-23T08:41:51.788Z,17.66
2018-08-23T08:42:51.757Z,17.59
2018-08-23T08:43:51.781Z,17.58
2018-08-23T08:44:51.801Z,17.58
2018-08-23T08:45:51.817Z,17.62
2018-08-23T08:46:51.840Z,17.82
2018-08-23T08:47:51.860Z,17.87
2018-08-23T08:48:51.877Z,17.93
2018-08-23T08:49:51.899Z,17.99
2018-08-23T08:50:51.919Z,18.20
2018-08-23T08:51:51.939Z,18.39
2018-08-23T08:52:51.959Z,18.72
2018-08-23T08:53:51.979Z,18.76
2018-08-23T08:54:51.999Z,18.72
2018-08-23T08:55:52.019Z,18.75
2018-08-23T08:56:52.084Z,18.78
2018-08-23T08:57:52.195Z,18.85
2018-08-23T08:58:52.086Z,19.00
2018-08-23T08:59:52.105Z,18.52
2018-08-23T09:00:52.126Z,18.60
2018-08-23T09:01:52.147Z,18.25
2018-08-23T09:02:52.167Z,18.07
2018-08-23T09:03:52.186Z,18.11
2018-08-23T09:04:52.207Z,18.25
2018-08-23T09:05:52.225Z,18.36
2018-08-23T09:06:52.248Z,18.84
2018-08-23T09:07:52.273Z,19.13
2018-08-23T09:08:52.288Z,19.29
2018-08-23T09:09:52.353Z,19.23
2018-08-23T09:10:52.330Z,19.29
2018-08-23T09:11:52.351Z,19.43
2018-08-23T09:12:52.374Z,19.22
2018-08-23T09:13:52.394Z,19.36
2018-08-23T09:14:52.413Z,19.50
2018-08-23T09:15:52.437Z,19.40
2018-08-23T09:16:52.455Z,19.33
2018-08-23T09:17:52.478Z,19.26
2018-08-23T09:18:52.538Z,19.11
2018-08-23T09:19:52.519Z,19.04
2018-08-23T09:20:52.554Z,19.11
2018-08-23T09:21:52.566Z,19.13
2018-08-23T09:22:52.585Z,19.28
2018-08-23T09:23:52.606Z,19.28
2018-08-23T09:24:52.624Z,19.06
2018-08-23T09:25:52.647Z,19.10
2018-08-23T09:26:52.676Z,19.33
2018-08-23T09:27:52.687Z,19.19
2018-08-23T09:28:52.709Z,19.33
2018-08-23T09:29:52.730Z,19.50
2018-08-23T09:30:52.753Z,19.23
2018-08-23T09:31:52.776Z,19.41
2018-08-23T09:32:52.795Z,19.25
2018-08-23T09:33:52.815Z,19.40
2018-08-23T09:34:52.889Z,19.78
2018-08-23T09:35:52.860Z,19.96
2018-08-23T09:36:52.882Z,20.01
2018-08-23T09:37:52.911Z,19.96
2018-08-23T09:38:52.924Z,19.76
2018-08-23T09:39:52.947Z,19.86
2018-08-23T09:40:52.969Z,19.74
2018-08-23T09:41:52.994Z,19.78
2018-08-23T09:42:53.030Z,20.13
2018-08-23T09:43:53.034Z,20.51
2018-08-23T09:44:53.054Z,20.50
2018-08-23T09:45:53.078Z,20.58
2018-08-23T09:46:53.100Z,20.91
2018-08-23T09:47:53.125Z,20.87
2018-08-23T09:48:53.146Z,20.94
2018-08-23T09:49:53.167Z,20.80
2018-08-23T09:50:53.300Z,21.12
2018-08-23T09:51:53.207Z,21.31
2018-08-23T09:52:53.229Z,21.28
2018-08-23T09:53:53.254Z,21.29
2018-08-23T09:54:53.277Z,21.25
2018-08-23T09:55:53.298Z,21.29
2018-08-23T09:56:53.319Z,21.17
2018-08-23T09:57:53.342Z,21.13
2018-08-23T09:58:53.431Z,20.92
2018-08-23T09:59:53.389Z,20.92
2018-08-23T10:00:53.409Z,21.04
2018-08-23T10:01:53.435Z,21.21
2018-08-23T10:02:53.455Z,21.29
2018-08-23T10:03:53.479Z,21.19
2018-08-23T10:04:53.502Z,21.28
2018-08-23T10:05:53.528Z,21.65
2018-08-23T10:06:53.546Z,21.62
2018-08-23T10:07:53.573Z,21.71
2018-08-23T10:08:53.596Z,21.53
2018-08-23T10:09:53.618Z,21.77
2018-08-23T10:10:53.640Z,21.98
2018-08-23T10:11:53.789Z,22.07
2018-08-23T10:12:53.684Z,22.45
2018-08-23T10:13:53.709Z,22.75
2018-08-23T10:14:53.732Z,22.88
2018-08-23T10:15:53.753Z,23.09
2018-08-23T10:16:53.777Z,23.43
2018-08-23T10:17:53.801Z,23.32
2018-08-23T10:18:53.824Z,23.13
2018-08-23T10:19:53.847Z,23.07
2018-08-23T10:20:53.871Z,23.15
2018-08-23T10:21:53.895Z,23.01
2018-08-23T10:22:53.918Z,22.65
2018-08-23T10:23:53.945Z,22.73
2018-08-23T10:24:53.966Z,22.92
2018-08-23T10:25:53.989Z,23.00
2018-08-23T10:26:54.014Z,23.05
2018-08-23T10:27:54.040Z,23.07
2018-08-23T10:28:54.060Z,23.31
2018-08-23T10:29:54.085Z,23.60
2018-08-23T10:30:54.112Z,23.48
2018-08-23T10:31:54.138Z,23.54
2018-08-23T10:32:54.161Z,23.20
2018-08-23T10:33:54.183Z,23.38
2018-08-23T10:34:54.204Z,22.95
2018-08-23T10:35:54.240Z,22.55
2018-08-23T10:36:54.253Z,22.94
2018-08-23T10:37:54.280Z,23.15
2018-08-23T10:38:54.302Z,23.53
2018-08-23T10:39:54.329Z,23.36
2018-08-23T10:40:54.352Z,23.31
2018-08-23T10:41:54.377Z,23.10
2018-08-23T10:42:54.402Z,23.48
2018-08-23T10:43:54.425Z,23.58
2018-08-23T10:44:54.452Z,23.85
2018-08-23T10:45:54.475Z,23.40
2018-08-23T10:46:54.501Z,23.53
2018-08-23T10:47:54.525Z,23.58
2018-08-23T10:48:54.549Z,23.46
2018-08-23T10:49:54.573Z,23.53
2018-08-23T10:50:54.625Z,23.79
2018-08-23T10:51:54.626Z,23.79
2018-08-23T10:52:54.655Z,23.51
2018-08-23T10:53:54.674Z,23.38
2018-08-23T10:54:54.702Z,23.53
2018-08-23T10:55:54.725Z,23.53
2018-08-23T10:56:54.749Z,22.97
2018-08-23T10:57:54.775Z,22.67
2018-08-23T10:58:54.846Z,23.00
2018-08-23T10:59:54.826Z,23.20
2018-08-23T11:00:54.851Z,22.95
2018-08-23T11:01:54.876Z,22.14
2018-08-23T11:02:54.900Z,22.09
2018-08-23T11:03:54.927Z,21.82
2018-08-23T11:04:54.949Z,21.65
2018-08-23T11:05:54.974Z,21.74
2018-08-23T11:06:55.003Z,22.18
2018-08-23T11:07:55.028Z,22.51
2018-08-23T11:08:55.050Z,22.82
2018-08-23T11:09:55.088Z,23.31
2018-08-23T11:10:55.104Z,23.54
2018-08-23T11:11:55.128Z,22.91
2018-08-23T11:12:55.150Z,22.98
2018-08-23T11:13:55.175Z,23.50
2018-08-23T11:14:55.200Z,23.72
2018-08-23T11:15:55.226Z,24.12
2018-08-23T11:16:55.348Z,24.09
2018-08-23T11:17:55.277Z,23.84
2018-08-23T11:18:55.305Z,23.87
2018-08-23T11:19:55.327Z,23.93
2018-08-23T11:20:55.352Z,23.95
2018-08-23T11:21:55.379Z,24.20
2018-08-23T11:22:55.404Z,24.15
2018-08-23T11:23:55.428Z,23.90
2018-08-23T11:24:55.455Z,24.09
2018-08-23T11:25:55.480Z,24.22
2018-08-23T11:26:55.506Z,24.21
2018-08-23T11:27:55.533Z,23.42
2018-08-23T11:28:55.555Z,23.61
2018-08-23T11:29:55.603Z,23.90
2018-08-23T11:30:55.607Z,23.84
2018-08-23T11:31:55.636Z,24.21
2018-08-23T11:32:55.663Z,24.03
2018-08-23T11:33:55.687Z,23.43
2018-08-23T11:34:55.715Z,23.73
2018-08-23T11:35:55.741Z,23.66
2018-08-23T11:36:55.765Z,23.46
2018-08-23T11:37:55.792Z,23.13
2018-08-23T11:38:55.818Z,22.95
2018-08-23T11:39:55.845Z,22.92
2018-08-23T11:40:55.870Z,22.94
2018-08-23T11:41:55.899Z,23.17
2018-08-23T11:42:55.925Z,23.22
2018-08-23T11:43:55.948Z,23.48
2018-08-23T11:44:55.977Z,23.53
2018-08-23T11:45:55.999Z,23.27
2018-08-23T11:46:56.030Z,23.05
2018-08-23T11:47:56.055Z,22.55
2018-08-23T11:48:56.136Z,22.35
2018-08-23T11:49:56.103Z,22.52
2018-08-23T11:50:56.129Z,22.82
2018-08-23T11:51:56.153Z,23.61
2018-08-23T11:52:56.248Z,23.87
2018-08-23T11:53:56.278Z,24.08
2018-08-23T11:54:56.229Z,24.42
2018-08-23T11:55:56.255Z,24.42
2018-08-23T11:56:56.283Z,23.17
2018-08-23T11:57:56.316Z,23.33
2018-08-23T11:58:56.343Z,23.75
2018-08-23T11:59:56.357Z,24.10
2018-08-23T12:00:56.388Z,24.08
2018-08-23T12:01:56.408Z,24.05
2018-08-23T12:02:56.436Z,24.24
2018-08-23T12:03:56.463Z,24.57
2018-08-23T12:04:56.485Z,25.06
2018-08-23T12:05:56.510Z,24.47
2018-08-23T12:06:56.537Z,24.28
2018-08-23T12:07:56.566Z,24.39
2018-08-23T12:08:56.590Z,24.45
2018-08-23T12:09:56.704Z,24.10
2018-08-23T12:10:56.641Z,24.03
2018-08-23T12:11:56.671Z,24.12
2018-08-23T12:12:56.694Z,23.91
2018-08-23T12:13:56.721Z,24.12
2018-08-23T12:14:56.745Z,24.24
2018-08-23T12:15:56.771Z,24.57
2018-08-23T12:16:56.797Z,25.17
2018-08-23T12:17:56.827Z,25.02
2018-08-23T12:18:56.851Z,25.09
2018-08-23T12:19:56.877Z,25.15
2018-08-23T12:20:56.901Z,24.95
2018-08-23T12:21:56.930Z,24.88
2018-08-23T12:22:56.957Z,25.10
2018-08-23T12:23:56.982Z,25.39
2018-08-23T12:24:57.010Z,24.84
2018-08-23T12:25:57.177Z,24.34
2018-08-23T12:26:57.065Z,24.24
2018-08-23T12:27:57.089Z,24.10
2018-08-23T12:28:57.118Z,24.10
2018-08-23T12:29:57.144Z,24.08
2018-08-23T12:30:57.170Z,23.83
2018-08-23T12:31:57.194Z,24.09
2018-08-23T12:32:57.220Z,24.46
2018-08-23T12:33:57.249Z,24.31
2018-08-23T12:34:57.365Z,24.58
2018-08-23T12:35:57.301Z,24.30
2018-08-23T12:36:57.328Z,24.28
2018-08-23T12:37:57.353Z,24.50
2018-08-23T12:38:57.381Z,25.09
2018-08-23T12:39:57.407Z,25.32
2018-08-23T12:40:57.454Z,24.71
2018-08-23T12:41:57.460Z,25.02
2018-08-23T12:42:57.487Z,25.08
2018-08-23T12:43:57.514Z,24.53
2018-08-23T12:44:57.542Z,24.49
2018-08-23T12:45:57.574Z,23.87
2018-08-23T12:46:57.595Z,23.76
2018-08-23T12:47:57.624Z,23.85
2018-08-23T12:48:57.648Z,23.90
2018-08-23T12:49:57.675Z,24.46
2018-08-23T12:50:57.702Z,24.91
2018-08-23T12:51:57.727Z,24.77
2018-08-23T12:52:57.758Z,24.20